createdAt,value
2018-05-23T17:12:32.024Z,30.41
2018-05-23T17:15:36.606Z,29.75
2018-05-23T17:16:35.151Z,30.30
2018-05-23T17:18:29.867Z,30.58
2018-05-23T17:19:30.574Z,30.87
2018-05-23T17:21:37.856Z,30.30
2018-05-23T17:22:40.705Z,29.61
2018-05-23T17:23:38.713Z,30.29
2018-05-23T17:24:40.003Z,30.38
2018-05-23T17:25:38.896Z,29.90
2018-05-23T17:26:38.367Z,29.82
2018-05-23T17:27:37.764Z,29.72
2018-05-23T17:28:37.767Z,29.82
2018-05-23T17:29:38.528Z,29.41
2018-05-23T17:30:37.855Z,29.91
2018-05-23T17:31:37.829Z,29.83
2018-05-23T17:32:38.508Z,29.24
2018-05-23T17:33:38.507Z,29.72
2018-05-23T17:34:37.810Z,29.71
2018-05-23T17:35:37.893Z,29.90
2018-05-23T17:36:37.800Z,30.19
2018-05-23T17:37:37.885Z,29.90
2018-05-23T17:38:37.843Z,29.51
2018-05-23T17:39:37.834Z,29.62
2018-05-23T17:40:37.840Z,29.51
2018-05-23T17:41:38.983Z,29.61
2018-05-23T17:42:38.470Z,29.71
2018-05-23T17:43:38.495Z,29.40
2018-05-23T17:44:38.540Z,29.69
2018-05-23T17:45:38.508Z,29.97
2018-05-23T17:46:40.769Z,30.35
2018-05-23T17:47:39.116Z,29.97
2018-05-23T17:48:39.059Z,29.98
2018-05-23T17:49:38.757Z,29.98
2018-05-23T17:50:38.582Z,30.18
2018-05-23T17:51:38.716Z,30.57
2018-05-23T17:52:38.615Z,30.47
2018-05-23T17:53:38.595Z,30.76
2018-05-23T17:54:38.571Z,30.57
2018-05-23T17:55:37.904Z,29.98
2018-05-23T17:56:38.648Z,30.16
2018-05-23T17:57:38.761Z,30.26
2018-05-23T17:58:39.160Z,30.94
2018-05-23T17:59:39.019Z,30.94
2018-05-23T18:00:39.038Z,30.65
2018-05-23T18:01:39.028Z,30.44
2018-05-23T18:02:39.211Z,31.02
2018-05-23T18:03:38.593Z,31.31
2018-05-23T18:04:39.320Z,31.39
2018-05-23T18:05:39.438Z,31.02
2018-05-23T18:06:38.659Z,31.21
2018-05-23T18:07:37.994Z,31.31
2018-05-23T18:08:37.977Z,31.21
2018-05-23T18:09:37.973Z,31.60
2018-05-23T18:10:38.018Z,31.70
2018-05-23T18:11:38.014Z,31.70
2018-05-23T18:12:37.979Z,31.87
2018-05-23T18:13:38.018Z,31.87
2018-05-23T18:14:38.014Z,31.68
2018-05-23T18:15:38.105Z,31.89
2018-05-23T18:16:38.059Z,32.17
2018-05-23T18:17:38.057Z,32.37
2018-05-23T18:18:38.008Z,32.17
2018-05-23T18:19:38.006Z,32.44
2018-05-23T18:20:38.094Z,32.36
2018-05-23T18:21:38.037Z,33.04
2018-05-23T18:22:38.012Z,33.12
2018-05-23T18:23:38.259Z,32.84
2018-05-23T18:24:38.027Z,32.65
2018-05-23T18:25:38.164Z,32.64
2018-05-23T18:26:38.169Z,33.02
2018-05-23T18:27:38.126Z,33.12
2018-05-23T18:28:38.068Z,33.23
2018-05-23T18:29:38.165Z,32.82
2018-05-23T18:30:38.099Z,33.33
2018-05-23T18:31:38.089Z,33.02
2018-05-23T18:32:38.140Z,33.12
2018-05-23T18:33:38.159Z,33.02
2018-05-23T18:34:38.120Z,33.29
2018-05-23T18:35:38.283Z,33.41
2018-05-23T18:36:38.116Z,33.59
2018-05-23T18:37:38.358Z,33.70
2018-05-23T18:38:39.260Z,34.07
2018-05-23T18:39:42.039Z,33.78
2018-05-23T18:40:38.148Z,33.78
2018-05-23T18:41:38.125Z,33.60
2018-05-23T18:42:38.208Z,34.27
2018-05-23T18:43:39.250Z,34.07
2018-05-23T18:44:38.872Z,34.36
2018-05-23T18:45:38.225Z,34.07
2018-05-23T18:46:41.749Z,34.07
2018-05-23T18:47:38.130Z,34.17
2018-05-23T18:48:38.208Z,34.75
2018-05-23T18:49:39.360Z,34.65
2018-05-23T18:50:38.177Z,34.17
2018-05-23T18:51:38.314Z,35.04
2018-05-23T18:52:38.174Z,34.55
2018-05-23T18:53:38.497Z,34.84
2018-05-23T18:54:38.179Z,34.83
2018-05-23T18:55:38.192Z,35.02
2018-05-23T18:56:41.740Z,34.73
2018-05-23T18:57:38.192Z,35.12
2018-05-23T18:58:38.191Z,35.21
2018-05-23T18:59:39.234Z,35.50
2018-05-23T19:00:38.211Z,35.21
2018-05-23T19:01:38.234Z,35.12
2018-05-23T19:02:38.967Z,35.50
2018-05-23T19:03:38.914Z,35.41
2018-05-23T19:04:38.915Z,35.70
2018-05-23T19:05:38.906Z,35.80
2018-05-23T19:06:38.914Z,36.08
2018-05-23T19:07:38.935Z,35.97
2018-05-23T19:08:38.914Z,35.88
2018-05-23T19:09:39.073Z,35.88
2018-05-23T19:10:38.259Z,36.07
2018-05-23T19:11:38.967Z,36.46
2018-05-23T19:12:38.914Z,36.55
2018-05-23T19:13:39.250Z,36.65
2018-05-23T19:14:39.268Z,37.12
2018-05-23T19:15:38.283Z,37.32
2018-05-23T19:16:39.028Z,36.84
2018-05-23T19:17:42.085Z,37.21
2018-05-23T19:18:38.305Z,37.02
2018-05-23T19:19:38.334Z,37.79
2018-05-23T19:20:38.310Z,37.60
2018-05-23T19:21:39.319Z,37.70
2018-05-23T19:22:38.361Z,37.79
2018-05-23T19:23:38.308Z,37.98
2018-05-23T19:24:38.923Z,38.28
2018-05-23T19:25:38.968Z,38.37
2018-05-23T19:26:38.953Z,38.46
2018-05-23T19:27:39.123Z,38.76
2018-05-23T19:28:39.092Z,38.76
2018-05-23T19:29:39.580Z,38.83
2018-05-23T19:30:39.215Z,38.85
2018-05-23T19:31:39.592Z,39.12
2018-05-23T19:32:38.350Z,39.22
2018-05-23T19:33:38.349Z,39.22
2018-05-23T19:34:39.033Z,39.32
2018-05-23T19:35:38.437Z,39.51
2018-05-23T19:36:38.973Z,39.32
2018-05-23T19:37:38.989Z,39.32
2018-05-23T19:38:38.366Z,40.28
2018-05-23T19:39:39.027Z,39.80
2018-05-23T19:40:38.990Z,39.80
2018-05-23T19:41:39.105Z,39.80
2018-05-23T19:42:39.070Z,39.70
2018-05-23T19:43:39.063Z,39.99
2018-05-23T19:44:39.041Z,40.19
2018-05-23T19:45:39.056Z,41.05
2018-05-23T19:46:39.554Z,39.90
2018-05-23T19:47:39.135Z,40.67
2018-05-23T19:48:39.573Z,40.47
2018-05-23T19:49:39.231Z,40.65
2018-05-23T19:50:41.996Z,40.84
2018-05-23T19:51:39.072Z,41.03
2018-05-23T19:52:38.513Z,41.13
2018-05-23T19:53:39.161Z,41.33
2018-05-23T19:54:38.505Z,41.71
2018-05-23T19:55:39.130Z,42.00
2018-05-23T19:56:39.178Z,41.91
2018-05-23T19:57:39.109Z,41.91
2018-05-23T19:58:39.072Z,42.00
2018-05-23T19:59:39.071Z,42.29
2018-05-23T20:00:39.094Z,42.48
2018-05-23T20:01:39.131Z,42.29
2018-05-23T20:02:39.624Z,42.48
2018-05-23T20:03:39.144Z,42.48
2018-05-23T20:04:39.163Z,42.77
2018-05-23T20:05:41.563Z,43.06
2018-05-23T20:06:39.156Z,43.26
2018-05-23T20:07:39.114Z,43.74
2018-05-23T20:08:39.243Z,43.64
2018-05-23T20:09:39.089Z,43.64
2018-05-23T20:10:39.080Z,43.62
2018-05-23T20:11:39.527Z,44.10
2018-05-23T20:12:39.972Z,44.20
2018-05-23T20:13:41.378Z,43.91
2018-05-23T20:14:39.143Z,43.62
2018-05-23T20:15:39.176Z,43.81
2018-05-23T20:16:38.509Z,44.20
2018-05-23T20:17:39.230Z,43.91
2018-05-23T20:18:39.214Z,44.39
2018-05-23T20:19:39.215Z,44.49
2018-05-23T20:20:39.703Z,45.07
2018-05-23T20:21:39.240Z,44.39
2018-05-23T20:22:39.803Z,45.17
2018-05-23T20:23:39.298Z,45.14
2018-05-23T20:24:39.644Z,45.04
2018-05-23T20:25:41.978Z,45.24
2018-05-23T20:26:39.654Z,45.53
2018-05-23T20:27:39.424Z,44.76
2018-05-23T20:28:39.491Z,44.97
2018-05-23T20:29:39.406Z,44.95
2018-05-23T20:30:39.817Z,44.95
2018-05-23T20:31:39.214Z,44.76
2018-05-23T20:32:40.851Z,44.95
2018-05-23T20:33:39.249Z,44.95
2018-05-23T20:34:38.580Z,45.04
2018-05-23T20:35:38.565Z,44.95
2018-05-23T20:36:38.572Z,44.95
2018-05-23T20:37:39.233Z,45.14
2018-05-23T20:38:39.211Z,45.43
2018-05-23T20:39:39.233Z,44.95
2018-05-23T20:40:39.276Z,45.60
2018-05-23T20:41:39.338Z,45.89
2018-05-23T20:42:39.753Z,45.92
2018-05-23T20:43:43.520Z,45.72
2018-05-23T20:44:38.732Z,45.82
2018-05-23T20:45:40.271Z,45.82
2018-05-23T20:46:39.405Z,45.72
2018-05-23T20:47:40.556Z,45.92
2018-05-23T20:48:39.612Z,46.47
2018-05-23T20:49:39.828Z,45.89
2018-05-23T20:50:39.818Z,46.37
2018-05-23T20:51:40.448Z,47.05
2018-05-23T20:52:39.828Z,47.05
2018-05-23T20:53:39.818Z,46.28
2018-05-23T20:54:39.808Z,46.18
2018-05-23T20:55:39.828Z,46.18
2018-05-23T20:56:39.445Z,46.56
2018-05-23T20:57:39.816Z,46.37
2018-05-23T20:58:39.542Z,46.28
2018-05-23T20:59:39.223Z,46.95
2018-05-23T21:00:39.293Z,47.24
2018-05-23T21:01:39.311Z,47.44
2018-05-23T21:02:39.522Z,47.34
2018-05-23T21:03:39.688Z,47.44
2018-05-23T21:04:39.333Z,47.41
2018-05-23T21:05:39.767Z,47.24
2018-05-23T21:06:40.283Z,46.95
2018-05-23T21:07:39.354Z,46.95
2018-05-23T21:08:39.774Z,47.34
2018-05-23T21:09:39.664Z,47.22
2018-05-23T21:10:39.651Z,47.34
2018-05-23T21:11:40.102Z,47.41
2018-05-23T21:12:39.810Z,47.51
2018-05-23T21:13:39.647Z,47.60
2018-05-23T21:14:39.328Z,47.22
2018-05-23T21:15:39.721Z,47.60
2018-05-23T21:16:38.685Z,47.51
2018-05-23T21:17:38.741Z,47.22
2018-05-23T21:18:39.987Z,47.51
2018-05-23T21:19:40.089Z,47.31
2018-05-23T21:20:39.523Z,47.60
2018-05-23T21:21:39.827Z,47.51
2018-05-23T21:22:39.774Z,47.41
2018-05-23T21:23:39.607Z,47.31
2018-05-23T21:24:40.187Z,47.60
2018-05-23T21:25:39.884Z,46.93
2018-05-23T21:26:40.047Z,46.83
2018-05-23T21:27:39.817Z,46.83
2018-05-23T21:28:40.131Z,47.12
2018-05-23T21:29:41.821Z,47.03
2018-05-23T21:30:39.719Z,47.03
2018-05-23T21:31:40.045Z,47.60
2018-05-23T21:32:39.823Z,47.12
2018-05-23T21:33:39.507Z,47.60
2018-05-23T21:34:39.507Z,47.51
2018-05-23T21:35:38.744Z,47.60
2018-05-23T21:36:39.533Z,47.70
2018-05-23T21:37:39.822Z,48.18
2018-05-23T21:38:39.823Z,48.28
2018-05-23T21:39:38.745Z,48.76
2018-05-23T21:40:39.548Z,48.74
2018-05-23T21:41:39.540Z,48.28
2018-05-23T21:42:40.335Z,48.66
2018-05-23T21:43:41.868Z,48.35
2018-05-23T21:44:39.831Z,48.76
2018-05-23T21:45:40.359Z,48.57
2018-05-23T21:46:39.793Z,49.02
2018-05-23T21:47:39.784Z,48.93
2018-05-23T21:48:38.787Z,49.41
2018-05-23T21:49:39.433Z,49.89
2018-05-23T21:50:39.783Z,49.60
2018-05-23T21:51:39.827Z,49.02
2018-05-23T21:52:39.437Z,49.70
2018-05-23T21:53:38.785Z,49.51
2018-05-23T21:54:39.949Z,49.41
2018-05-23T21:55:38.806Z,48.83
2018-05-23T21:56:39.893Z,49.02
2018-05-23T21:57:39.854Z,48.93
2018-05-23T21:58:41.817Z,48.93
2018-05-23T21:59:38.821Z,48.83
2018-05-23T22:00:39.855Z,49.32
2018-05-23T22:01:39.431Z,49.02
2018-05-23T22:02:39.498Z,49.12
2018-05-23T22:03:39.410Z,49.89
2018-05-23T22:04:39.455Z,49.70
2018-05-23T22:05:40.155Z,49.87
2018-05-23T22:06:38.952Z,49.77
2018-05-23T22:07:39.890Z,48.83
2018-05-23T22:08:39.570Z,48.83
2018-05-23T22:09:39.590Z,48.83
2018-05-23T22:10:39.921Z,49.70
2018-05-23T22:11:39.694Z,49.29
2018-05-23T22:12:39.676Z,49.77
2018-05-23T22:13:39.550Z,49.38
2018-05-23T22:14:39.692Z,49.19
2018-05-23T22:15:39.435Z,49.02
2018-05-23T22:16:38.848Z,49.10
2018-05-23T22:17:39.522Z,49.77
2018-05-23T22:18:38.859Z,48.90
2018-05-23T22:19:39.689Z,49.10
2018-05-23T22:20:39.642Z,48.81
2018-05-23T22:21:38.867Z,49.00
2018-05-23T22:22:38.838Z,49.00
2018-05-23T22:23:39.654Z,48.52
2018-05-23T22:24:38.929Z,49.19
2018-05-23T22:25:39.563Z,48.90
2018-05-23T22:26:39.004Z,48.90
2018-05-23T22:27:38.888Z,48.43
2018-05-23T22:28:40.274Z,48.13
2018-05-23T22:29:39.512Z,48.81
2018-05-23T22:30:39.491Z,48.81
2018-05-23T22:31:39.841Z,48.61
2018-05-23T22:32:39.488Z,48.52
2018-05-23T22:33:39.744Z,48.52
2018-05-23T22:34:39.678Z,48.52
2018-05-23T22:35:38.879Z,47.94
2018-05-23T22:36:38.885Z,48.23
2018-05-23T22:37:39.609Z,48.33
2018-05-23T22:38:38.885Z,48.52
2018-05-23T22:39:38.911Z,48.52
2018-05-23T22:40:39.796Z,48.61
2018-05-23T22:41:38.899Z,48.71
2018-05-23T22:42:39.601Z,48.23
2018-05-23T22:43:39.664Z,48.61
2018-05-23T22:44:39.572Z,48.61
2018-05-23T22:45:38.920Z,48.71
2018-05-23T22:46:39.056Z,48.52
2018-05-23T22:47:39.282Z,48.81
2018-05-23T22:48:39.290Z,48.81
2018-05-23T22:49:38.995Z,48.43
2018-05-23T22:50:39.042Z,48.52
2018-05-23T22:51:39.038Z,48.43
2018-05-23T22:52:39.025Z,48.61
2018-05-23T22:53:38.965Z,48.90
2018-05-23T22:54:39.556Z,48.23
2018-05-23T22:55:39.826Z,48.71
2018-05-23T22:56:39.070Z,49.10
2018-05-23T22:57:39.004Z,48.81
2018-05-23T22:58:38.980Z,48.90
2018-05-23T22:59:39.810Z,48.90
2018-05-23T23:00:38.996Z,48.81
2018-05-23T23:01:39.366Z,49.07
2018-05-23T23:02:39.302Z,49.10
2018-05-23T23:03:39.268Z,48.81
2018-05-23T23:04:39.320Z,48.81
2018-05-23T23:05:38.971Z,48.71
2018-05-23T23:06:38.990Z,48.69
2018-05-23T23:07:39.578Z,48.03
2018-05-23T23:08:39.286Z,48.88
2018-05-23T23:09:39.297Z,48.88
2018-05-23T23:10:38.998Z,49.07
2018-05-23T23:11:39.627Z,49.94
2018-05-23T23:12:38.965Z,49.55
2018-05-23T23:13:39.727Z,49.94
2018-05-23T23:14:40.053Z,49.74
2018-05-23T23:15:39.697Z,49.94
2018-05-23T23:16:39.754Z,49.65
2018-05-23T23:17:39.720Z,49.74
2018-05-23T23:18:40.036Z,49.27
2018-05-23T23:19:39.999Z,48.88
2018-05-23T23:20:40.045Z,49.55
2018-05-23T23:21:40.146Z,49.36
2018-05-23T23:22:40.643Z,48.97
2018-05-23T23:23:40.195Z,49.07
2018-05-23T23:24:41.323Z,48.97
2018-05-23T23:25:40.012Z,49.07
2018-05-23T23:26:40.197Z,49.07
2018-05-23T23:27:40.415Z,49.27
2018-05-23T23:28:40.200Z,49.07
2018-05-23T23:29:40.110Z,49.36
2018-05-23T23:30:40.907Z,49.36
2018-05-23T23:31:40.189Z,49.17
2018-05-23T23:32:40.694Z,48.88
2018-05-23T23:33:40.655Z,48.88
2018-05-23T23:34:40.674Z,48.59
2018-05-23T23:35:40.602Z,49.07
2018-05-23T23:36:40.716Z,49.07
2018-05-23T23:37:40.635Z,48.85
2018-05-23T23:38:40.561Z,48.85
2018-05-23T23:39:40.685Z,49.05
2018-05-23T23:40:40.621Z,49.07
2018-05-23T23:41:40.665Z,48.85
2018-05-23T23:42:40.706Z,48.76
2018-05-23T23:43:40.872Z,49.05
2018-05-23T23:44:40.151Z,49.05
2018-05-23T23:45:40.638Z,48.79
2018-05-23T23:46:40.578Z,49.15
2018-05-23T23:47:40.817Z,48.95
2018-05-23T23:48:40.603Z,49.05
2018-05-23T23:49:41.181Z,49.05
2018-05-23T23:50:40.099Z,48.95
2018-05-23T23:51:40.867Z,48.76
2018-05-23T23:52:40.641Z,49.05
2018-05-23T23:53:40.564Z,48.85
2018-05-23T23:54:40.708Z,49.05
2018-05-23T23:55:40.834Z,48.85
2018-05-23T23:56:40.608Z,48.57
2018-05-23T23:57:40.627Z,48.57
2018-05-23T23:58:40.638Z,48.47
2018-05-23T23:59:40.281Z,48.57
